TimeCDT,TemperatureF,Dew PointF,Humidity,Sea Level PressureIn,VisibilityMPH,Wind Direction,Wind SpeedMPH,Gust SpeedMPH,PrecipitationIn,Events,Conditions,WindDirDegrees,DateUTC
12:15 AM,73.4,50.0,44,30.08,10.0,Calm,Calm,-,N/A,,Clear,0,2013-07-03 05:15:00
12:35 AM,75.2,48.2,38,30.08,10.0,Calm,Calm,-,N/A,,Clear,0,2013-07-03 05:35:00
12:55 AM,73.4,48.2,41,30.08,10.0,Calm,Calm,-,N/A,,Clear,0,2013-07-03 05:55:00
1:15 AM,73.4,50.0,44,30.08,10.0,Calm,Calm,-,N/A,,Clear,0,2013-07-03 06:15:00
1:35 AM,73.4,50.0,44,30.08,10.0,Calm,Calm,-,N/A,,Clear,0,2013-07-03 06:35:00
1:55 AM,73.4,50.0,44,30.07,10.0,Calm,Calm,-,N/A,,Clear,0,2013-07-03 06:55:00
2:15 AM,73.4,50.0,44,30.07,10.0,Calm,Calm,-,N/A,,Clear,0,2013-07-03 07:15:00
2:35 AM,73.4,50.0,44,30.07,10.0,Calm,Calm,-,N/A,,Clear,0,2013-07-03 07:35:00
2:55 AM,71.6,51.8,50,30.07,10.0,Calm,Calm,-,N/A,,Clear,0,2013-07-03 07:55:00
3:15 AM,71.6,51.8,50,30.06,10.0,Calm,Calm,-,N/A,,Clear,0,2013-07-03 08:15:00
3:35 AM,73.4,51.8,47,30.06,10.0,Calm,Calm,-,N/A,,Clear,0,2013-07-03 08:35:00
3:55 AM,69.8,53.6,56,30.06,10.0,Calm,Calm,-,N/A,,Clear,0,2013-07-03 08:55:00
4:15 AM,69.8,53.6,56,30.06,10.0,Calm,Calm,-,N/A,,Clear,0,2013-07-03 09:15:00
4:35 AM,71.6,53.6,53,30.06,10.0,Calm,Calm,-,N/A,,Clear,0,2013-07-03 09:35:00
4:55 AM,71.6,53.6,53,30.06,10.0,Calm,Calm,-,N/A,,Clear,0,2013-07-03 09:55:00
5:15 AM,71.6,51.8,50,30.06,10.0,Calm,Calm,-,N/A,,Clear,0,2013-07-03 10:15:00
5:35 AM,69.8,51.8,53,30.06,10.0,Calm,Calm,-,N/A,,Clear,0,2013-07-03 10:35:00
5:55 AM,66.2,53.6,64,30.06,10.0,Calm,Calm,-,N/A,,Clear,0,2013-07-03 10:55:00
6:15 AM,68.0,53.6,60,30.07,10.0,Calm,Calm,-,N/A,,Clear,0,2013-07-03 11:15:00
6:35 AM,68.0,53.6,60,30.07,10.0,Calm,Calm,-,N/A,,Clear,0,2013-07-03 11:35:00
6:50 AM,68.0,53.6,60,30.07,10.0,NNW,6.9,-,N/A,,Clear,330,2013-07-03 11:50:00
6:55 AM,68.0,53.6,60,30.07,10.0,Calm,Calm,-,N/A,,Clear,0,2013-07-03 11:55:00
7:50 AM,68.0,53.6,60,30.07,10.0,Calm,Calm,-,N/A,,Clear,0,2013-07-03 12:50:00
8:50 AM,75.2,53.6,47,30.09,10.0,Calm,Calm,-,N/A,,Clear,0,2013-07-03 13:50:00
9:50 AM,80.6,55.4,42,30.09,10.0,Calm,Calm,-,N/A,,Clear,0,2013-07-03 14:50:00
10:50 AM,84.2,53.6,35,30.09,10.0,Calm,Calm,-,N/A,,Clear,0,2013-07-03 15:50:00
11:50 AM,84.2,46.4,27,30.08,10.0,Calm,Calm,-,N/A,,Clear,0,2013-07-03 16:50:00
12:50 PM,86.0,46.4,25,30.07,10.0,ESE,4.6,-,N/A,,Clear,110,2013-07-03 17:50:00
1:50 PM,87.8,46.4,24,30.06,10.0,Calm,Calm,-,N/A,,Clear,0,2013-07-03 18:50:00
2:52 PM,87.8,44.6,22,30.03,10.0,Calm,Calm,-,N/A,,Clear,0,2013-07-03 19:52:00
3:53 PM,89.6,42.8,20,30.02,10.0,Calm,Calm,-,N/A,,Clear,0,2013-07-03 20:53:00
4:48 PM,89.6,37.4,16,30.00,10.0,Calm,Calm,-,N/A,,Clear,0,2013-07-03 21:48:00
5:57 PM,89.6,37.4,16,29.98,10.0,Calm,Calm,-,N/A,,Clear,0,2013-07-03 22:57:00
6:57 PM,87.8,42.8,21,29.97,10.0,Calm,Calm,-,N/A,,Clear,0,2013-07-03 23:57:00
7:50 PM,87.8,44.6,22,29.97,10.0,Calm,Calm,-,N/A,,Clear,0,2013-07-04 00:50:00
9:15 PM,80.6,46.4,30,29.98,10.0,East,3.5,-,N/A,,Clear,90,2013-07-04 02:15:00
9:35 PM,80.6,48.2,32,29.99,10.0,East,4.6,-,N/A,,Clear,90,2013-07-04 02:35:00
9:55 PM,78.8,48.2,34,29.99,10.0,Calm,Calm,-,N/A,,Clear,0,2013-07-04 02:55:00
10:15 PM,78.8,48.2,34,29.99,10.0,East,3.5,-,N/A,,Clear,90,2013-07-04 03:15:00
10:35 PM,77.0,50.0,39,30.00,10.0,East,3.5,-,N/A,,Clear,100,2013-07-04 03:35:00
10:55 PM,77.0,50.0,39,30.01,10.0,East,5.8,-,N/A,,Clear,90,2013-07-04 03:55:00
11:15 PM,78.8,48.2,34,30.01,10.0,East,4.6,-,N/A,,Clear,100,2013-07-04 04:15:00
11:35 PM,77.0,50.0,39,30.01,10.0,ESE,4.6,-,N/A,,Clear,110,2013-07-04 04:35:00
11:55 PM,78.8,50.0,36,30.01,10.0,ESE,4.6,-,N/A,,Clear,110,2013-07-04 04:55:00